Time;durP1;ratioP1;P1;durP2;ratioP2;P2;SDS_P1;SDS_P2;PMS_P1;PMS_P2;Temp;Humidity;BMP_temperature;BMP_pressure;BME280_temperature;BME280_humidity;BME280_pressure;Samples;Min_cycle;Max_cycle;Signal;HPM_P1;HPM_P2
2022/11/09 00:01:36;;;;;;;3.03;1.80;;;14.10;99.90;;;;;;4961474;28;20031;-66
2022/11/09 00:04:03;;;;;;;4.28;1.77;;;14.00;99.90;;;;;;4962128;28;20866;-66
2022/11/09 00:06:30;;;;;;;5.95;1.80;;;14.00;99.90;;;;;;4940693;28;20042;-66
2022/11/09 00:08:56;;;;;;;3.67;2.05;;;13.90;99.90;;;;;;4960663;28;20035;-66
2022/11/09 00:11:22;;;;;;;5.63;2.22;;;13.90;99.90;;;;;;4966538;28;20046;-66
2022/11/09 00:13:48;;;;;;;4.10;2.00;;;13.90;99.90;;;;;;4964008;28;20226;-66
2022/11/09 00:16:16;;;;;;;4.55;1.90;;;13.90;99.90;;;;;;4959687;28;20035;-66
2022/11/09 00:18:46;;;;;;;4.70;2.03;;;13.80;99.90;;;;;;4962118;28;20051;-66
2022/11/09 00:21:14;;;;;;;4.68;1.90;;;13.90;99.90;;;;;;4966077;28;20030;-66
2022/11/09 00:23:39;;;;;;;4.18;1.80;;;13.80;99.90;;;;;;4965381;28;20491;-66
2022/11/09 00:26:06;;;;;;;3.88;1.75;;;13.80;99.90;;;;;;4945978;28;20030;-66
2022/11/09 00:28:33;;;;;;;4.80;2.03;;;13.60;99.90;;;;;;4969846;28;20544;-67
2022/11/09 00:31:03;;;;;;;4.30;1.90;;;13.70;99.90;;;;;;4961843;28;20088;-67
2022/11/09 00:33:29;;;;;;;5.20;2.03;;;13.80;99.90;;;;;;4955721;28;20821;-66
2022/11/09 00:35:55;;;;;;;4.05;2.05;;;13.70;99.90;;;;;;4947889;28;20032;-67
2022/11/09 00:38:21;;;;;;;4.72;1.83;;;13.60;99.90;;;;;;4945489;28;20042;-66
2022/11/09 00:40:47;;;;;;;4.03;1.92;;;13.60;99.90;;;;;;4936151;28;20039;-66
2022/11/09 00:43:12;;;;;;;4.65;2.00;;;13.60;99.90;;;;;;4941581;28;20073;-66
2022/11/09 00:45:39;;;;;;;5.18;2.08;;;13.50;99.90;;;;;;4945390;28;20055;-66
2022/11/09 00:48:06;;;;;;;3.17;1.92;;;13.50;99.90;;;;;;4943274;28;20693;-66
2022/11/09 00:50:31;;;;;;;3.45;1.75;;;13.50;99.90;;;;;;4941381;28;20126;-67
2022/11/09 00:52:57;;;;;;;3.17;1.90;;;13.40;99.90;;;;;;4942301;28;20130;-65
2022/11/09 00:55:23;;;;;;;4.50;2.13;;;13.40;99.90;;;;;;4941491;28;20035;-67
2022/11/09 00:57:49;;;;;;;6.72;2.15;;;13.50;99.90;;;;;;4942187;28;20046;-67
2022/11/09 01:00:21;;;;;;;3.20;1.75;;;13.60;99.90;;;;;;4939367;28;20043;-67
2022/11/09 01:02:48;;;;;;;4.72;2.20;;;13.50;99.90;;;;;;4947804;28;20066;-67
2022/11/09 01:05:13;;;;;;;3.88;2.10;;;13.50;99.90;;;;;;4954264;28;20038;-67
2022/11/09 01:07:39;;;;;;;4.38;2.00;;;13.70;99.90;;;;;;4969691;28;20046;-66
2022/11/09 01:10:06;;;;;;;6.18;2.22;;;13.60;99.90;;;;;;4964232;28;20049;-66
2022/11/09 01:12:32;;;;;;;4.10;2.00;;;13.60;99.90;;;;;;4961335;28;20046;-67
2022/11/09 01:14:57;;;;;;;5.75;2.10;;;13.70;99.90;;;;;;4967241;28;20698;-66
2022/11/09 01:17:23;;;;;;;4.13;1.92;;;13.70;99.90;;;;;;4963228;28;20042;-67
2022/11/09 01:19:49;;;;;;;3.35;1.80;;;13.60;99.90;;;;;;4964228;28;20486;-67
2022/11/09 01:22:16;;;;;;;6.22;2.28;;;13.50;99.90;;;;;;4965076;28;20085;-66
2022/11/09 01:24:41;;;;;;;4.28;2.00;;;13.60;99.90;;;;;;4959642;28;20039;-66
2022/11/09 01:27:07;;;;;;;6.32;2.20;;;13.50;99.90;;;;;;4966779;28;20038;-66
2022/11/09 01:29:33;;;;;;;3.97;1.50;;;13.40;99.90;;;;;;4958952;28;20058;-66
2022/11/09 01:31:58;;;;;;;3.78;1.90;;;13.40;99.90;;;;;;4968353;28;20047;-67
2022/11/09 01:34:26;;;;;;;2.83;1.80;;;13.40;99.90;;;;;;4967621;28;20062;-66
2022/11/09 01:36:52;;;;;;;6.57;2.10;;;13.40;99.90;;;;;;4969361;28;20651;-66
2022/11/09 01:39:18;;;;;;;3.92;1.73;;;13.40;99.90;;;;;;4962218;28;20039;-67
2022/11/09 01:41:44;;;;;;;5.43;1.70;;;13.40;99.90;;;;;;4964770;28;20023;-67
2022/11/09 01:44:18;;;;;;;4.75;1.77;;;13.40;99.90;;;;;;4960530;28;20160;-66
2022/11/09 01:46:57;;;;;;;4.55;1.85;;;13.40;99.90;;;;;;4961921;28;20525;-66
2022/11/09 01:49:49;;;;;;;4.30;1.65;;;13.30;99.90;;;;;;4970467;28;20042;-66
2022/11/09 01:52:35;;;;;;;5.90;1.88;;;13.10;99.90;;;;;;4958094;28;20079;-67
2022/11/09 01:55:17;;;;;;;6.43;2.45;;;13.10;99.90;;;;;;4959819;28;20035;-67
2022/11/09 01:57:52;;;;;;;3.15;1.60;;;13.10;99.90;;;;;;4939327;28;20023;-67
2022/11/09 02:00:18;;;;;;;5.47;1.55;;;13.10;99.90;;;;;;4943605;28;20043;-66
2022/11/09 02:02:54;;;;;;;4.45;1.80;;;13.10;99.90;;;;;;4946870;28;20524;-66
2022/11/09 02:05:25;;;;;;;5.97;1.83;;;13.20;99.90;;;;;;4939635;28;20051;-66
2022/11/09 02:07:51;;;;;;;3.10;1.63;;;13.30;99.90;;;;;;4948469;28;20042;-66
2022/11/09 02:10:26;;;;;;;4.65;1.58;;;13.20;99.90;;;;;;4938543;28;20043;-67
2022/11/09 02:12:53;;;;;;;4.15;1.50;;;13.20;99.90;;;;;;4942743;28;20046;-66
2022/11/09 02:15:20;;;;;;;6.68;1.50;;;13.30;99.90;;;;;;4942451;28;20043;-66
2022/11/09 02:17:51;;;;;;;5.47;1.30;;;13.30;99.90;;;;;;4940677;28;20036;-66
2022/11/09 02:20:17;;;;;;;5.80;1.70;;;13.30;99.90;;;;;;4936531;28;20043;-66
2022/11/09 02:22:43;;;;;;;4.50;1.30;;;13.20;99.90;;;;;;4928940;28;20035;-66
2022/11/09 02:25:10;;;;;;;5.95;1.63;;;13.30;99.90;;;;;;4947639;28;20657;-66
2022/11/09 02:27:37;;;;;;;4.18;1.70;;;13.30;99.90;;;;;;4941881;28;20395;-67
2022/11/09 02:30:04;;;;;;;7.78;1.55;;;13.30;99.90;;;;;;4939873;28;20035;-66
2022/11/09 02:32:29;;;;;;;6.90;1.65;;;13.30;99.90;;;;;;4944536;28;20065;-66
2022/11/09 02:34:55;;;;;;;6.72;1.60;;;13.30;99.90;;;;;;4940140;28;20511;-66
2022/11/09 02:37:46;;;;;;;5.72;1.80;;;13.40;99.90;;;;;;4944400;28;20440;-66
2022/11/09 02:40:36;;;;;;;8.57;1.60;;;13.20;99.90;;;;;;4946576;28;20355;-66
2022/11/09 02:43:03;;;;;;;7.47;1.75;;;13.20;99.90;;;;;;4945373;28;20031;-66
2022/11/09 02:45:29;;;;;;;6.07;1.85;;;13.30;99.90;;;;;;4944323;28;20051;-66
2022/11/09 02:47:55;;;;;;;8.77;2.20;;;13.30;99.90;;;;;;4929990;28;20041;-66
2022/11/09 02:50:20;;;;;;;5.40;1.83;;;13.30;99.90;;;;;;4943521;28;20066;-66
2022/11/09 02:52:46;;;;;;;4.25;1.48;;;13.30;99.90;;;;;;4940788;28;20131;-66
2022/11/09 02:55:11;;;;;;;7.85;1.63;;;13.30;99.90;;;;;;4943231;28;20150;-66
2022/11/09 02:57:37;;;;;;;6.50;1.70;;;13.30;99.90;;;;;;4929686;28;20054;-66
2022/11/09 03:00:03;;;;;;;6.90;1.60;;;13.30;99.90;;;;;;4942793;28;20154;-66
2022/11/09 03:02:29;;;;;;;5.43;1.77;;;13.30;99.90;;;;;;4948493;28;20035;-66
2022/11/09 03:04:55;;;;;;;8.15;1.63;;;13.30;99.90;;;;;;4947038;28;20502;-66
2022/11/09 03:07:20;;;;;;;9.25;1.70;;;13.30;99.90;;;;;;4953562;28;20142;-66
2022/11/09 03:09:46;;;;;;;6.07;1.83;;;13.40;99.90;;;;;;4947946;28;20581;-66
2022/11/09 03:12:29;;;;;;;8.45;1.83;;;13.30;99.90;;;;;;4944365;28;20552;-66
2022/11/09 03:14:59;;;;;;;;;;;13.30;99.90;;;;;;4955711;28;20054;-66
2022/11/09 03:17:25;;;;;;;5.30;1.60;;;13.30;99.90;;;;;;4945972;28;19921;-66
2022/11/09 03:19:51;;;;;;;7.28;1.65;;;13.30;99.90;;;;;;4946793;28;20043;-66
2022/11/09 03:22:16;;;;;;;11.23;2.17;;;13.30;99.90;;;;;;4949878;28;20688;-66
2022/11/09 03:24:42;;;;;;;5.20;1.60;;;13.30;99.90;;;;;;4945471;28;20043;-66
2022/11/09 03:27:07;;;;;;;5.75;1.80;;;13.40;99.90;;;;;;4948580;28;20054;-67
2022/11/09 03:29:33;;;;;;;5.32;1.60;;;13.40;99.90;;;;;;4920631;28;20038;-67
2022/11/09 03:31:59;;;;;;;9.10;1.83;;;13.50;99.90;;;;;;4943575;28;20187;-67
2022/11/09 03:34:24;;;;;;;7.63;1.90;;;13.50;99.90;;;;;;4944075;28;20058;-67
2022/11/09 03:36:50;;;;;;;7.20;1.65;;;13.60;99.90;;;;;;4943106;28;20031;-67
2022/11/09 03:39:16;;;;;;;7.20;1.88;;;13.60;99.90;;;;;;4951067;28;20113;-66
2022/11/09 03:41:41;;;;;;;8.18;1.70;;;13.60;99.90;;;;;;4946778;28;20329;-66
2022/11/09 03:44:07;;;;;;;9.30;1.70;;;13.60;99.90;;;;;;4943061;28;20062;-66
2022/11/09 03:46:32;;;;;;;11.18;1.83;;;13.60;99.90;;;;;;4945538;28;20035;-67
2022/11/09 03:48:58;;;;;;;4.85;1.40;;;13.60;99.90;;;;;;4953570;28;20037;-66
2022/11/09 03:51:23;;;;;;;5.28;1.70;;;13.60;99.90;;;;;;4942368;28;20131;-66
2022/11/09 03:53:49;;;;;;;5.47;1.45;;;13.60;99.90;;;;;;4944895;28;20027;-66
2022/11/09 03:56:14;;;;;;;5.97;1.88;;;13.60;99.90;;;;;;4942892;28;20023;-66
2022/11/09 03:58:40;;;;;;;8.75;1.77;;;13.70;99.90;;;;;;4943985;28;20087;-66
2022/11/09 04:01:06;;;;;;;8.55;1.55;;;13.70;99.90;;;;;;4941855;28;20104;-66
2022/11/09 04:03:31;;;;;;;6.07;1.58;;;13.70;99.90;;;;;;4943614;28;20139;-66
2022/11/09 04:05:58;;;;;;;10.75;2.10;;;13.70;99.90;;;;;;4945800;28;20030;-66
2022/11/09 04:08:23;;;;;;;7.65;1.92;;;13.60;99.90;;;;;;4949335;28;20428;-66
2022/11/09 04:10:49;;;;;;;6.55;1.58;;;13.60;99.90;;;;;;4943188;28;20097;-66
2022/11/09 04:13:14;;;;;;;4.70;1.52;;;13.70;99.90;;;;;;4941089;28;20122;-66
2022/11/09 04:15:41;;;;;;;12.10;2.20;;;13.60;99.90;;;;;;4945719;28;20063;-66
2022/11/09 04:18:12;;;;;;;6.78;1.38;;;13.70;99.90;;;;;;4943669;28;20051;-66
2022/11/09 04:20:37;;;;;;;7.45;1.55;;;13.70;99.90;;;;;;4943377;28;20660;-66
2022/11/09 04:23:04;;;;;;;12.48;2.15;;;13.60;99.90;;;;;;4943120;28;20037;-65
2022/11/09 04:25:34;;;;;;;9.63;1.98;;;13.70;99.90;;;;;;4947374;28;20059;-66
2022/11/09 04:28:01;;;;;;;6.93;1.40;;;13.70;99.90;;;;;;4940585;28;20184;-66
2022/11/09 04:30:28;;;;;;;9.60;1.73;;;13.70;99.90;;;;;;4944522;28;20495;-66
2022/11/09 04:32:55;;;;;;;9.50;2.03;;;13.70;99.90;;;;;;4942943;28;20435;-66
2022/11/09 04:35:21;;;;;;;7.32;1.55;;;13.80;99.90;;;;;;4942162;28;20479;-66
2022/11/09 04:38:04;;;;;;;9.52;1.90;;;13.90;99.90;;;;;;4944787;28;20193;-66
2022/11/09 04:40:32;;;;;;;7.75;1.58;;;13.90;99.90;;;;;;4945010;28;20043;-66
2022/11/09 04:43:02;;;;;;;7.55;1.45;;;13.80;99.90;;;;;;4941203;28;20059;-67
2022/11/09 04:45:28;;;;;;;10.52;1.73;;;13.80;99.90;;;;;;4942352;28;20147;-67
2022/11/09 04:48:01;;;;;;;6.93;1.73;;;13.70;99.90;;;;;;4940223;28;20092;-67
2022/11/09 04:50:27;;;;;;;;;;;13.80;99.90;;;;;;4946007;28;20114;-66
2022/11/09 04:52:52;;;;;;;6.68;1.98;;;13.70;99.90;;;;;;4946145;28;20012;-66
2022/11/09 04:55:18;;;;;;;5.40;1.40;;;13.60;99.90;;;;;;4943794;28;20109;-67
2022/11/09 04:57:43;;;;;;;6.32;1.45;;;13.60;99.90;;;;;;4949499;28;20062;-67
2022/11/09 05:00:10;;;;;;;8.77;1.75;;;13.60;99.90;;;;;;4941979;28;20517;-67
2022/11/09 05:02:35;;;;;;;7.40;1.67;;;13.60;99.90;;;;;;4942232;28;20031;-66
2022/11/09 05:05:01;;;;;;;9.93;1.73;;;13.50;99.90;;;;;;4949249;28;20035;-67
2022/11/09 05:07:26;;;;;;;8.38;1.83;;;13.60;99.90;;;;;;4941970;28;20027;-67
2022/11/09 05:09:52;;;;;;;8.23;1.40;;;13.50;99.90;;;;;;4943980;28;20035;-67
2022/11/09 05:12:17;;;;;;;9.07;1.90;;;13.40;99.90;;;;;;4937017;28;20047;-66
2022/11/09 05:14:43;;;;;;;8.65;1.55;;;13.40;99.90;;;;;;4951536;28;20062;-66
2022/11/09 05:17:08;;;;;;;6.63;1.67;;;13.40;99.90;;;;;;4943479;28;20089;-66
2022/11/09 05:19:34;;;;;;;8.35;1.75;;;13.40;99.90;;;;;;4943134;28;20070;-66
2022/11/09 05:24:44;;;;;;;12.88;2.30;;;13.40;99.90;;;;;;4947895;28;20122;-67
2022/11/09 05:27:09;;;;;;;7.25;1.60;;;13.40;99.90;;;;;;4946057;28;20507;-67
2022/11/09 05:29:35;;;;;;;5.40;1.90;;;13.40;99.90;;;;;;4945881;28;20114;-67
2022/11/09 05:32:01;;;;;;;5.72;1.63;;;13.40;99.90;;;;;;4942254;28;20031;-66
2022/11/09 05:34:27;;;;;;;6.53;1.67;;;13.40;99.90;;;;;;4944872;28;20575;-66
2022/11/09 05:36:53;;;;;;;10.40;2.10;;;13.40;99.90;;;;;;4942643;28;20122;-66
2022/11/09 05:39:18;;;;;;;5.47;1.67;;;13.40;99.90;;;;;;4942703;28;20130;-66
2022/11/09 05:41:44;;;;;;;5.78;1.80;;;13.40;99.90;;;;;;4940520;28;20620;-66
2022/11/09 05:44:09;;;;;;;8.65;1.83;;;13.40;99.90;;;;;;4942527;28;20673;-66
2022/11/09 05:46:35;;;;;;;7.03;1.80;;;13.40;99.90;;;;;;4943366;28;20545;-66
2022/11/09 05:49:00;;;;;;;8.60;2.10;;;13.40;99.90;;;;;;4939923;28;20482;-66
2022/11/09 05:51:26;;;;;;;9.35;2.13;;;13.40;99.90;;;;;;4943305;28;20039;-66
2022/11/09 05:53:51;;;;;;;6.65;1.33;;;13.30;99.90;;;;;;4944835;28;20043;-66
2022/11/09 05:56:17;;;;;;;10.02;2.40;;;13.30;99.90;;;;;;4938765;28;20123;-66
2022/11/09 05:58:42;;;;;;;6.75;1.95;;;13.30;99.90;;;;;;4938754;28;20035;-66
2022/11/09 06:01:14;;;;;;;6.63;1.83;;;13.30;99.90;;;;;;4939481;28;20127;-66
2022/11/09 06:03:42;;;;;;;8.00;1.80;;;13.20;99.90;;;;;;4948119;28;20128;-66
2022/11/09 06:06:09;;;;;;;10.05;1.70;;;13.20;99.90;;;;;;4941614;28;20517;-66
2022/11/09 06:08:37;;;;;;;9.40;1.88;;;13.20;99.90;;;;;;4944761;28;20039;-66
2022/11/09 06:11:04;;;;;;;7.47;1.85;;;13.20;99.90;;;;;;4942096;28;20436;-65
2022/11/09 06:13:31;;;;;;;9.57;2.05;;;13.20;99.90;;;;;;4945493;28;20390;-66
2022/11/09 06:15:59;;;;;;;8.32;1.90;;;13.20;99.90;;;;;;4946744;28;20060;-66
2022/11/09 06:18:27;;;;;;;5.47;1.60;;;13.20;99.90;;;;;;4944487;28;20130;-66
2022/11/09 06:20:54;;;;;;;11.25;2.35;;;13.20;99.90;;;;;;4947628;28;20046;-66
2022/11/09 06:23:28;;;;;;;7.43;2.03;;;13.40;99.90;;;;;;4946525;28;20100;-66
2022/11/09 06:26:02;;;;;;;15.00;2.50;;;13.40;99.90;;;;;;4940409;28;20047;-65
2022/11/09 06:28:28;;;;;;;7.60;1.50;;;13.30;99.90;;;;;;4944819;28;20031;-65
2022/11/09 06:31:02;;;;;;;4.72;1.75;;;13.30;99.90;;;;;;4948956;28;20038;-66
2022/11/09 06:33:33;;;;;;;9.98;2.08;;;13.30;99.90;;;;;;4945772;28;20063;-67
2022/11/09 06:35:59;;;;;;;12.00;2.30;;;13.40;99.90;;;;;;4944612;28;20529;-63
2022/11/09 06:38:28;;;;;;;7.50;1.98;;;13.80;99.90;;;;;;4949678;28;20043;-63
2022/11/09 06:40:55;;;;;;;9.77;1.85;;;13.40;99.90;;;;;;4943526;28;20073;-63
2022/11/09 06:43:21;;;;;;;6.32;2.10;;;13.40;99.90;;;;;;4949273;28;20066;-63
2022/11/09 06:45:47;;;;;;;9.98;2.30;;;13.40;99.90;;;;;;4950583;28;20086;-63
2022/11/09 06:48:13;;;;;;;4.35;1.70;;;13.10;99.90;;;;;;4946372;28;20035;-63
2022/11/09 06:50:38;;;;;;;9.52;1.88;;;13.20;99.90;;;;;;4952442;28;20039;-63
2022/11/09 06:53:08;;;;;;;8.38;1.85;;;13.10;99.90;;;;;;4947583;28;20040;-63
2022/11/09 06:55:35;;;;;;;5.28;1.65;;;13.10;99.90;;;;;;4946636;28;20043;-63
2022/11/09 06:58:08;;;;;;;6.22;1.67;;;13.20;99.90;;;;;;4944480;28;20042;-63
2022/11/09 07:00:34;;;;;;;;;;;13.00;99.90;;;;;;4945771;28;20169;-63
2022/11/09 07:03:00;;;;;;;7.47;1.30;;;13.00;99.90;;;;;;4941633;28;19929;-63
2022/11/09 07:05:25;;;;;;;6.25;1.73;;;13.20;99.90;;;;;;4943731;28;20050;-63
2022/11/09 07:07:51;;;;;;;5.65;1.45;;;13.40;99.90;;;;;;4948811;28;20027;-63
2022/11/09 07:10:16;;;;;;;6.80;1.83;;;13.60;99.90;;;;;;4943409;28;20035;-63
2022/11/09 07:12:42;;;;;;;9.10;2.38;;;13.80;99.90;;;;;;4945957;28;20028;-62
2022/11/09 07:15:10;;;;;;;7.88;1.83;;;14.00;99.90;;;;;;4945625;28;20043;-63
2022/11/09 07:17:38;;;;;;;9.68;2.67;;;14.20;99.90;;;;;;4947576;28;20051;-63
2022/11/09 07:20:05;;;;;;;5.65;1.60;;;13.90;99.90;;;;;;4940145;28;20053;-63
2022/11/09 07:22:30;;;;;;;8.55;1.70;;;14.00;99.90;;;;;;4947271;28;20850;-63
2022/11/09 07:24:56;;;;;;;10.40;1.88;;;13.80;99.90;;;;;;4941367;28;20065;-63
2022/11/09 07:27:22;;;;;;;8.65;1.50;;;13.70;99.90;;;;;;4925726;28;20584;-63
2022/11/09 07:29:47;;;;;;;6.30;1.83;;;13.60;99.90;;;;;;4942614;28;20059;-64
2022/11/09 07:32:13;;;;;;;4.95;1.67;;;13.60;99.90;;;;;;4950672;28;20054;-63
2022/11/09 07:34:39;;;;;;;7.45;1.85;;;13.50;99.90;;;;;;4956740;28;20105;-63
2022/11/09 07:37:04;;;;;;;7.72;2.00;;;13.90;99.90;;;;;;4959074;28;20109;-63
2022/11/09 07:39:30;;;;;;;5.60;1.20;;;14.20;99.90;;;;;;4964742;28;20038;-63
2022/11/09 07:41:56;;;;;;;6.30;1.90;;;14.10;99.90;;;;;;4961621;28;20038;-63
2022/11/09 07:44:21;;;;;;;4.88;1.63;;;14.20;99.90;;;;;;4963914;28;20106;-63
2022/11/09 07:46:48;;;;;;;7.43;1.83;;;14.40;99.90;;;;;;4964823;28;20111;-63
2022/11/09 07:49:14;;;;;;;5.38;1.33;;;14.40;99.90;;;;;;4964119;28;20042;-63
2022/11/09 07:51:41;;;;;;;3.50;1.40;;;14.30;99.90;;;;;;4965342;28;20608;-63
2022/11/09 07:54:07;;;;;;;6.50;1.40;;;14.30;99.90;;;;;;4968085;28;20406;-63
2022/11/09 07:56:33;;;;;;;4.45;1.20;;;14.30;99.90;;;;;;4965486;28;20707;-63
2022/11/09 07:58:58;;;;;;;8.40;1.70;;;14.60;99.90;;;;;;4969684;28;20125;-63
2022/11/09 08:01:24;;;;;;;8.40;1.60;;;14.40;99.90;;;;;;4960036;28;20039;-63
2022/11/09 08:03:51;;;;;;;8.00;1.83;;;14.20;99.90;;;;;;4962431;28;20046;-63
2022/11/09 08:06:16;;;;;;;7.40;1.67;;;13.90;99.90;;;;;;4961688;28;20106;-63
2022/11/09 08:08:42;;;;;;;6.75;2.65;;;14.10;99.90;;;;;;4958099;28;20031;-63
2022/11/09 08:11:07;;;;;;;7.55;2.88;;;13.90;99.90;;;;;;4951132;28;20035;-63
2022/11/09 08:13:33;;;;;;;6.10;1.98;;;13.70;99.90;;;;;;4944452;28;20057;-63
2022/11/09 08:16:03;;;;;;;6.65;1.60;;;13.80;99.90;;;;;;4940231;28;20039;-63
2022/11/09 08:18:29;;;;;;;6.80;1.40;;;14.10;99.90;;;;;;4945424;28;20115;-63
2022/11/09 08:20:54;;;;;;;4.18;1.40;;;14.10;99.90;;;;;;4948080;28;20553;-63
2022/11/09 08:23:20;;;;;;;6.47;1.67;;;14.20;99.90;;;;;;4942873;28;20536;-63
2022/11/09 08:25:49;;;;;;;7.97;1.52;;;14.40;99.90;;;;;;4943264;28;20154;-63
2022/11/09 08:28:15;;;;;;;4.03;1.50;;;14.30;99.90;;;;;;4938380;28;20047;-63
2022/11/09 08:30:42;;;;;;;4.65;1.40;;;14.40;99.90;;;;;;4949843;28;20027;-63
2022/11/09 08:33:08;;;;;;;4.15;1.45;;;14.10;99.90;;;;;;4948104;28;20422;-63
2022/11/09 08:35:34;;;;;;;4.68;1.40;;;14.20;99.90;;;;;;4940062;28;20046;-63
2022/11/09 08:38:03;;;;;;;3.28;1.27;;;14.20;99.90;;;;;;4939977;28;20404;-63
2022/11/09 08:40:30;;;;;;;3.17;1.30;;;14.60;99.90;;;;;;4939154;28;20062;-63
2022/11/09 08:43:01;;;;;;;5.20;1.30;;;14.50;99.90;;;;;;4949801;28;20114;-63
2022/11/09 08:45:27;;;;;;;3.40;1.20;;;14.60;99.90;;;;;;4946486;28;20650;-63
2022/11/09 08:47:59;;;;;;;5.25;1.70;;;14.80;99.90;;;;;;4935057;28;20205;-63
2022/11/09 08:50:26;;;;;;;7.45;1.77;;;14.30;99.90;;;;;;4946762;28;20035;-63
2022/11/09 08:52:51;;;;;;;5.30;1.70;;;14.00;99.90;;;;;;4941126;28;20031;-63
2022/11/09 08:55:17;;;;;;;11.75;1.92;;;14.00;99.90;;;;;;4932630;28;20101;-63
2022/11/09 08:57:42;;;;;;;7.28;1.42;;;14.00;99.90;;;;;;4958750;28;20123;-63
2022/11/09 09:00:08;;;;;;;5.38;1.58;;;14.00;99.90;;;;;;4943906;28;20039;-63
2022/11/09 09:02:34;;;;;;;4.97;1.60;;;13.20;99.90;;;;;;4945248;28;20035;-62
2022/11/09 09:05:00;;;;;;;5.10;1.30;;;13.90;99.90;;;;;;4941194;28;20023;-62
2022/11/09 09:07:25;;;;;;;10.13;1.80;;;13.90;99.90;;;;;;4944215;28;20082;-63
2022/11/09 09:09:51;;;;;;;5.18;1.52;;;13.90;99.90;;;;;;4943453;28;20086;-63
2022/11/09 09:12:17;;;;;;;5.65;1.38;;;14.00;99.90;;;;;;4950776;28;20035;-63
2022/11/09 09:14:42;;;;;;;8.93;1.50;;;14.00;99.90;;;;;;4944151;28;20047;-63
2022/11/09 09:17:08;;;;;;;4.72;1.45;;;14.00;99.90;;;;;;4945518;28;20035;-63
2022/11/09 09:19:33;;;;;;;6.93;1.70;;;14.10;99.90;;;;;;4944978;28;20039;-63
2022/11/09 09:21:59;;;;;;;4.22;1.40;;;14.10;99.90;;;;;;4943391;28;20166;-63
2022/11/09 09:24:25;;;;;;;6.05;1.55;;;14.30;99.90;;;;;;4942459;28;20024;-63
2022/11/09 09:26:51;;;;;;;7.68;1.63;;;14.30;99.90;;;;;;4943321;28;20446;-62
2022/11/09 09:29:17;;;;;;;5.80;1.73;;;14.40;99.90;;;;;;4944166;28;20035;-63
2022/11/09 09:31:42;;;;;;;7.47;1.67;;;14.20;99.90;;;;;;4942982;28;20039;-63
2022/11/09 09:34:08;;;;;;;6.28;1.33;;;14.30;99.90;;;;;;4943434;28;20418;-63
2022/11/09 09:36:34;;;;;;;6.22;1.60;;;14.30;99.90;;;;;;4944124;28;20159;-63
2022/11/09 09:39:00;;;;;;;8.45;1.58;;;14.40;99.90;;;;;;4941055;28;20052;-63
2022/11/09 09:42:02;;;;;;;3.35;1.23;;;14.40;99.90;;;;;;4943370;28;20051;-63
2022/11/09 09:45:04;;;;;;;6.57;1.40;;;14.30;99.90;;;;;;4922271;28;20039;-62
2022/11/09 09:47:41;;;;;;;5.45;1.40;;;14.30;99.90;;;;;;4963184;28;20569;-63
2022/11/09 09:50:20;;;;;;;8.07;1.85;;;14.40;99.90;;;;;;4965908;28;20049;-62
2022/11/09 09:53:15;;;;;;;8.00;3.40;;;14.40;99.90;;;;;;4962848;28;20039;-62
2022/11/09 09:55:45;;;;;;;7.82;2.15;;;14.50;99.90;;;;;;4960098;28;20087;-62
2022/11/09 09:58:15;;;;;;;8.93;1.90;;;14.50;99.90;;;;;;4967628;28;20039;-62
2022/11/09 10:00:42;;;;;;;7.47;1.70;;;14.50;99.90;;;;;;4964023;28;20100;-63
2022/11/09 10:03:16;;;;;;;10.05;1.70;;;14.60;99.90;;;;;;4965755;28;20042;-62
2022/11/09 10:06:06;;;;;;;6.70;1.60;;;14.60;99.90;;;;;;4967642;28;20039;-63
2022/11/09 10:09:01;;;;;;;9.23;2.22;;;14.60;99.90;;;;;;4970200;28;20149;-63
2022/11/09 10:11:50;;;;;;;7.88;1.80;;;14.60;99.90;;;;;;4953250;28;20161;-62
2022/11/09 10:14:39;;;;;;;8.27;2.20;;;14.70;99.90;;;;;;4947741;28;20656;-62
2022/11/09 10:17:22;;;;;;;12.88;2.97;;;14.70;99.90;;;;;;4963177;28;20126;-62
2022/11/09 10:20:07;;;;;;;6.97;1.95;;;14.80;99.90;;;;;;4960874;28;20070;-63
2022/11/09 10:22:58;;;;;;;7.50;1.85;;;14.90;99.90;;;;;;4961678;28;20509;-62
2022/11/09 10:25:31;;;;;;;6.32;1.48;;;15.00;99.90;;;;;;4961745;28;20031;-62
2022/11/09 10:28:01;;;;;;;7.82;1.63;;;15.10;99.90;;;;;;4966420;28;20046;-62
2022/11/09 10:30:28;;;;;;;6.72;1.80;;;15.00;99.90;;;;;;4960608;28;20042;-62
2022/11/09 10:32:58;;;;;;;7.07;1.60;;;14.90;99.90;;;;;;4954525;28;20112;-62
2022/11/09 10:35:29;;;;;;;8.38;1.60;;;14.90;99.90;;;;;;4942705;28;20039;-62
2022/11/09 10:37:55;;;;;;;8.13;1.80;;;15.00;99.90;;;;;;4949818;28;20027;-62
2022/11/09 10:40:36;;;;;;;6.22;1.40;;;15.10;99.90;;;;;;4948719;28;20426;-62
2022/11/09 10:43:08;;;;;;;7.60;1.67;;;15.10;99.90;;;;;;4946992;28;20031;-62
2022/11/09 10:45:37;;;;;;;4.85;1.73;;;15.10;99.90;;;;;;4947952;28;20738;-62
2022/11/09 10:48:05;;;;;;;13.25;2.13;;;15.10;99.90;;;;;;4940968;28;20038;-62
2022/11/09 10:50:39;;;;;;;5.85;1.58;;;15.10;99.90;;;;;;4944389;28;20027;-62
2022/11/09 10:53:09;;;;;;;6.28;1.65;;;15.10;99.90;;;;;;4946091;28;20027;-62
2022/11/09 10:55:35;;;;;;;5.00;1.27;;;15.00;99.90;;;;;;4931025;28;20030;-62
2022/11/09 10:58:26;;;;;;;7.90;1.63;;;15.00;99.90;;;;;;4934313;28;20652;-62
2022/11/09 11:01:12;;;;;;;11.65;2.92;;;14.90;99.90;;;;;;4937937;28;20571;-61
2022/11/09 11:03:39;;;;;;;10.27;1.60;;;14.90;99.90;;;;;;4927151;29;20372;-62
2022/11/09 11:06:13;;;;;;;7.75;1.63;;;14.90;99.90;;;;;;4924147;29;20043;-62
2022/11/09 11:08:42;;;;;;;10.50;1.60;;;14.90;99.90;;;;;;4930949;28;20467;-62
2022/11/09 11:11:17;;;;;;;11.23;1.77;;;14.70;99.90;;;;;;4923227;28;20040;-62
2022/11/09 11:13:43;;;;;;;6.40;1.30;;;14.80;99.90;;;;;;4921777;29;20043;-63
2022/11/09 11:16:33;;;;;;;8.75;1.95;;;14.90;99.90;;;;;;4917238;29;20087;-63
2022/11/09 11:19:00;;;;;;;10.88;1.60;;;14.90;99.90;;;;;;4923862;29;20102;-63
2022/11/09 11:21:26;;;;;;;4.72;1.40;;;15.00;99.90;;;;;;4936247;28;20043;-63
2022/11/09 11:24:18;;;;;;;6.38;1.60;;;14.90;99.90;;;;;;4930373;28;20086;-63
2022/11/09 11:27:01;;;;;;;6.57;1.50;;;14.90;99.90;;;;;;4918232;29;20058;-63
2022/11/09 11:29:33;;;;;;;6.95;1.50;;;14.80;99.90;;;;;;4927373;28;20075;-63
2022/11/09 11:31:59;;;;;;;9.73;1.52;;;14.80;99.90;;;;;;4931834;28;20066;-63
2022/11/09 11:34:25;;;;;;;7.18;1.33;;;15.10;99.90;;;;;;4924234;29;20035;-63
2022/11/09 11:37:00;;;;;;;5.85;1.30;;;14.90;99.90;;;;;;4931333;28;20523;-63
2022/11/09 11:39:36;;;;;;;6.30;1.77;;;14.80;99.90;;;;;;4926955;28;20035;-63
2022/11/09 11:42:13;;;;;;;8.13;1.52;;;14.80;99.90;;;;;;4925190;29;20036;-63
2022/11/09 11:45:00;;;;;;;17.45;1.95;;;14.80;99.90;;;;;;4926129;29;20040;-63
2022/11/09 11:48:01;;;;;;;7.80;1.70;;;14.80;99.90;;;;;;4926243;28;20080;-63
2022/11/09 11:50:54;;;;;;;6.93;2.50;;;14.90;99.90;;;;;;4929126;28;20035;-63
2022/11/09 11:53:55;;;;;;;9.50;1.53;;;14.90;99.90;;;;;;4922212;29;20348;-62
2022/11/09 11:56:43;;;;;;;9.27;1.60;;;15.00;99.90;;;;;;4922911;29;20042;-63
2022/11/09 11:59:37;;;;;;;7.93;1.90;;;15.20;99.90;;;;;;4927725;29;20040;-64
2022/11/09 12:02:02;;;;;;;;;;;15.30;99.90;;;;;;4925970;29;20044;-63
2022/11/09 12:05:06;;;;;;;8.73;1.65;;;15.40;99.90;;;;;;4924394;28;20444;-63
2022/11/09 12:07:50;;;;;;;10.60;1.60;;;15.30;99.90;;;;;;4922692;28;20035;-63
2022/11/09 12:10:55;;;;;;;5.72;1.35;;;15.40;99.90;;;;;;4919288;29;20087;-64
2022/11/09 12:13:30;;;;;;;5.28;1.33;;;15.40;99.90;;;;;;4923793;28;21412;-64
2022/11/09 12:16:07;;;;;;;6.68;1.73;;;15.60;99.90;;;;;;4945099;28;20050;-63
2022/11/09 12:18:56;;;;;;;7.57;2.10;;;15.70;99.90;;;;;;4923421;29;20039;-63
2022/11/09 12:21:32;;;;;;;10.70;3.65;;;15.80;99.90;;;;;;4925466;28;20440;-64
2022/11/09 12:24:13;;;;;;;11.80;2.78;;;16.10;99.90;;;;;;4929733;29;20039;-63
2022/11/09 12:27:10;;;;;;;13.93;3.78;;;16.30;99.90;;;;;;4920537;28;20047;-63
2022/11/09 12:29:46;;;;;;;10.43;2.63;;;16.80;99.90;;;;;;4919246;29;20043;-63
2022/11/09 12:32:43;;;;;;;12.75;3.63;;;16.20;99.90;;;;;;4942582;28;20121;-63
2022/11/09 12:35:26;;;;;;;11.38;3.10;;;16.30;99.90;;;;;;4961648;28;20041;-63
2022/11/09 12:38:01;;;;;;;16.23;3.85;;;16.40;99.90;;;;;;4958670;28;20408;-62
2022/11/09 12:40:38;;;;;;;9.05;2.45;;;16.50;99.90;;;;;;4961091;28;20043;-63
2022/11/09 12:43:25;;;;;;;11.25;2.83;;;16.90;99.90;;;;;;4962311;28;20030;-63
2022/11/09 12:45:52;;;;;;;10.93;3.22;;;17.10;99.90;;;;;;4963839;28;20667;-63
2022/11/09 12:48:36;;;;;;;8.73;2.00;;;17.00;99.90;;;;;;4965523;28;20490;-63
2022/11/09 12:51:05;;;;;;;11.10;2.50;;;16.80;99.90;;;;;;4961850;28;20578;-63
2022/11/09 12:53:36;;;;;;;9.05;2.05;;;16.60;99.90;;;;;;4964266;28;20142;-63
2022/11/09 12:56:21;;;;;;;7.80;1.67;;;16.70;99.90;;;;;;4961414;28;20702;-63
2022/11/09 12:58:47;;;;;;;8.45;1.95;;;16.80;99.90;;;;;;4947654;28;20053;-63
2022/11/09 13:01:32;;;;;;;8.75;1.73;;;16.70;99.90;;;;;;4961320;28;20700;-63
2022/11/09 13:04:03;;;;;;;10.18;1.58;;;16.60;99.90;;;;;;4960260;28;20122;-64